sensor_id;sensor_type;location;lat;lon;timestamp;P1;durP1;ratioP1;P2;durP2;ratioP2
28587;SDS011;15787;49.662;10.162;2023-03-08T00:00:22;12.70;;;5.50;;
28587;SDS011;15787;49.662;10.162;2023-03-08T00:02:55;12.23;;;5.93;;
28587;SDS011;15787;49.662;10.162;2023-03-08T00:05:30;10.57;;;5.47;;
28587;SDS011;15787;49.662;10.162;2023-03-08T00:08:03;12.63;;;6.15;;
28587;SDS011;15787;49.662;10.162;2023-03-08T00:10:36;10.88;;;5.85;;
28587;SDS011;15787;49.662;10.162;2023-03-08T00:13:09;10.23;;;5.57;;
28587;SDS011;15787;49.662;10.162;2023-03-08T00:15:42;10.60;;;5.40;;
28587;SDS011;15787;49.662;10.162;2023-03-08T00:18:15;14.27;;;5.07;;
28587;SDS011;15787;49.662;10.162;2023-03-08T00:20:58;12.15;;;5.72;;
28587;SDS011;15787;49.662;10.162;2023-03-08T00:23:31;11.43;;;5.40;;
28587;SDS011;15787;49.662;10.162;2023-03-08T00:26:04;11.25;;;5.57;;
28587;SDS011;15787;49.662;10.162;2023-03-08T00:28:38;13.13;;;5.70;;
28587;SDS011;15787;49.662;10.162;2023-03-08T00:31:11;10.77;;;5.78;;
28587;SDS011;15787;49.662;10.162;2023-03-08T00:33:45;11.45;;;5.78;;
28587;SDS011;15787;49.662;10.162;2023-03-08T00:36:19;11.32;;;5.50;;
28587;SDS011;15787;49.662;10.162;2023-03-08T00:38:52;12.63;;;5.35;;
28587;SDS011;15787;49.662;10.162;2023-03-08T00:41:25;11.00;;;5.07;;
28587;SDS011;15787;49.662;10.162;2023-03-08T00:43:58;9.80;;;4.80;;
28587;SDS011;15787;49.662;10.162;2023-03-08T00:46:31;10.60;;;5.28;;
28587;SDS011;15787;49.662;10.162;2023-03-08T00:49:05;12.65;;;5.43;;
28587;SDS011;15787;49.662;10.162;2023-03-08T00:51:39;10.70;;;5.65;;
28587;SDS011;15787;49.662;10.162;2023-03-08T00:54:13;9.68;;;5.28;;
28587;SDS011;15787;49.662;10.162;2023-03-08T00:56:46;13.05;;;6.10;;
28587;SDS011;15787;49.662;10.162;2023-03-08T00:59:19;9.98;;;5.45;;
28587;SDS011;15787;49.662;10.162;2023-03-08T01:01:52;18.33;;;6.25;;
28587;SDS011;15787;49.662;10.162;2023-03-08T01:04:25;11.70;;;5.50;;
28587;SDS011;15787;49.662;10.162;2023-03-08T01:06:59;11.52;;;5.05;;
28587;SDS011;15787;49.662;10.162;2023-03-08T01:09:32;11.50;;;5.95;;
28587;SDS011;15787;49.662;10.162;2023-03-08T01:12:05;12.45;;;5.90;;
28587;SDS011;15787;49.662;10.162;2023-03-08T01:14:38;11.85;;;5.68;;
28587;SDS011;15787;49.662;10.162;2023-03-08T01:17:10;11.65;;;5.28;;
28587;SDS011;15787;49.662;10.162;2023-03-08T01:19:43;11.75;;;5.35;;
28587;SDS011;15787;49.662;10.162;2023-03-08T01:22:18;10.98;;;5.85;;
28587;SDS011;15787;49.662;10.162;2023-03-08T01:24:51;12.52;;;5.63;;
28587;SDS011;15787;49.662;10.162;2023-03-08T01:27:24;10.88;;;5.85;;
28587;SDS011;15787;49.662;10.162;2023-03-08T01:29:57;11.70;;;6.20;;
28587;SDS011;15787;49.662;10.162;2023-03-08T01:32:30;10.32;;;5.30;;
28587;SDS011;15787;49.662;10.162;2023-03-08T01:35:03;12.25;;;5.97;;
28587;SDS011;15787;49.662;10.162;2023-03-08T01:37:38;9.13;;;4.80;;
28587;SDS011;15787;49.662;10.162;2023-03-08T01:40:11;10.60;;;5.55;;
28587;SDS011;15787;49.662;10.162;2023-03-08T01:42:47;10.35;;;5.35;;
28587;SDS011;15787;49.662;10.162;2023-03-08T01:48:36;11.48;;;5.22;;
28587;SDS011;15787;49.662;10.162;2023-03-08T01:51:19;11.07;;;6.35;;
28587;SDS011;15787;49.662;10.162;2023-03-08T01:53:57;11.43;;;5.47;;
28587;SDS011;15787;49.662;10.162;2023-03-08T01:56:32;12.10;;;5.93;;
28587;SDS011;15787;49.662;10.162;2023-03-08T01:59:09;10.00;;;5.00;;
28587;SDS011;15787;49.662;10.162;2023-03-08T02:01:43;13.02;;;6.70;;
28587;SDS011;15787;49.662;10.162;2023-03-08T02:04:17;10.88;;;5.70;;
28587;SDS011;15787;49.662;10.162;2023-03-08T02:06:51;13.32;;;5.95;;
28587;SDS011;15787;49.662;10.162;2023-03-08T02:09:27;12.80;;;6.30;;
28587;SDS011;15787;49.662;10.162;2023-03-08T02:12:02;14.85;;;6.30;;
28587;SDS011;15787;49.662;10.162;2023-03-08T02:14:40;11.82;;;5.65;;
28587;SDS011;15787;49.662;10.162;2023-03-08T02:17:15;13.18;;;5.88;;
28587;SDS011;15787;49.662;10.162;2023-03-08T02:19:48;13.25;;;6.40;;
28587;SDS011;15787;49.662;10.162;2023-03-08T02:22:25;15.13;;;6.07;;
28587;SDS011;15787;49.662;10.162;2023-03-08T02:24:59;14.70;;;7.40;;
28587;SDS011;15787;49.662;10.162;2023-03-08T02:27:32;14.02;;;6.05;;
28587;SDS011;15787;49.662;10.162;2023-03-08T02:30:06;11.55;;;6.00;;
28587;SDS011;15787;49.662;10.162;2023-03-08T02:32:40;13.50;;;5.80;;
28587;SDS011;15787;49.662;10.162;2023-03-08T02:35:13;12.25;;;6.05;;
28587;SDS011;15787;49.662;10.162;2023-03-08T02:37:45;12.50;;;5.45;;
28587;SDS011;15787;49.662;10.162;2023-03-08T02:40:20;14.15;;;7.13;;
28587;SDS011;15787;49.662;10.162;2023-03-08T02:42:53;15.07;;;5.93;;
28587;SDS011;15787;49.662;10.162;2023-03-08T02:45:26;10.23;;;5.75;;
28587;SDS011;15787;49.662;10.162;2023-03-08T02:47:59;13.27;;;5.97;;
28587;SDS011;15787;49.662;10.162;2023-03-08T02:50:33;13.48;;;5.95;;
28587;SDS011;15787;49.662;10.162;2023-03-08T02:53:07;10.50;;;6.07;;
28587;SDS011;15787;49.662;10.162;2023-03-08T02:55:42;12.35;;;5.45;;
28587;SDS011;15787;49.662;10.162;2023-03-08T02:58:16;13.02;;;6.13;;
28587;SDS011;15787;49.662;10.162;2023-03-08T03:00:49;11.88;;;6.13;;
28587;SDS011;15787;49.662;10.162;2023-03-08T03:03:22;12.23;;;5.88;;
28587;SDS011;15787;49.662;10.162;2023-03-08T03:05:55;13.00;;;6.10;;
28587;SDS011;15787;49.662;10.162;2023-03-08T03:08:33;14.73;;;6.43;;
28587;SDS011;15787;49.662;10.162;2023-03-08T03:11:11;14.80;;;6.38;;
28587;SDS011;15787;49.662;10.162;2023-03-08T03:13:45;13.45;;;6.60;;
28587;SDS011;15787;49.662;10.162;2023-03-08T03:16:19;10.90;;;6.28;;
28587;SDS011;15787;49.662;10.162;2023-03-08T03:18:52;14.90;;;6.63;;
28587;SDS011;15787;49.662;10.162;2023-03-08T03:21:26;12.50;;;6.93;;
28587;SDS011;15787;49.662;10.162;2023-03-08T03:23:59;12.73;;;6.97;;
28587;SDS011;15787;49.662;10.162;2023-03-08T03:26:41;16.75;;;6.90;;
28587;SDS011;15787;49.662;10.162;2023-03-08T03:29:14;13.35;;;6.35;;
28587;SDS011;15787;49.662;10.162;2023-03-08T03:31:49;15.02;;;6.85;;
28587;SDS011;15787;49.662;10.162;2023-03-08T03:34:23;12.05;;;6.13;;
28587;SDS011;15787;49.662;10.162;2023-03-08T03:36:56;13.40;;;6.43;;
28587;SDS011;15787;49.662;10.162;2023-03-08T03:39:29;14.18;;;6.85;;
28587;SDS011;15787;49.662;10.162;2023-03-08T03:42:07;16.05;;;6.25;;
28587;SDS011;15787;49.662;10.162;2023-03-08T03:44:45;13.18;;;6.45;;
28587;SDS011;15787;49.662;10.162;2023-03-08T03:47:22;11.85;;;5.78;;
28587;SDS011;15787;49.662;10.162;2023-03-08T03:50:00;13.20;;;7.28;;
28587;SDS011;15787;49.662;10.162;2023-03-08T03:52:40;15.65;;;6.22;;
28587;SDS011;15787;49.662;10.162;2023-03-08T03:55:13;13.23;;;6.75;;
28587;SDS011;15787;49.662;10.162;2023-03-08T03:57:49;14.95;;;6.63;;
28587;SDS011;15787;49.662;10.162;2023-03-08T04:00:24;15.50;;;6.38;;
28587;SDS011;15787;49.662;10.162;2023-03-08T04:03:09;16.75;;;6.30;;
28587;SDS011;15787;49.662;10.162;2023-03-08T04:05:43;13.60;;;6.22;;
28587;SDS011;15787;49.662;10.162;2023-03-08T04:08:16;14.60;;;6.35;;
28587;SDS011;15787;49.662;10.162;2023-03-08T04:10:49;12.70;;;6.75;;
28587;SDS011;15787;49.662;10.162;2023-03-08T04:13:23;13.57;;;6.50;;
28587;SDS011;15787;49.662;10.162;2023-03-08T04:15:57;14.10;;;5.72;;
28587;SDS011;15787;49.662;10.162;2023-03-08T04:18:30;11.55;;;5.78;;
28587;SDS011;15787;49.662;10.162;2023-03-08T04:21:03;13.65;;;6.97;;
28587;SDS011;15787;49.662;10.162;2023-03-08T04:23:36;11.80;;;5.85;;
28587;SDS011;15787;49.662;10.162;2023-03-08T04:26:11;11.70;;;5.97;;
28587;SDS011;15787;49.662;10.162;2023-03-08T04:28:45;10.40;;;5.57;;
28587;SDS011;15787;49.662;10.162;2023-03-08T04:31:19;12.38;;;6.15;;
28587;SDS011;15787;49.662;10.162;2023-03-08T04:33:54;11.23;;;5.68;;
28587;SDS011;15787;49.662;10.162;2023-03-08T04:36:29;14.07;;;6.30;;
28587;SDS011;15787;49.662;10.162;2023-03-08T04:39:04;13.30;;;5.90;;
28587;SDS011;15787;49.662;10.162;2023-03-08T04:41:37;12.40;;;6.18;;
28587;SDS011;15787;49.662;10.162;2023-03-08T04:44:19;13.55;;;6.68;;
28587;SDS011;15787;49.662;10.162;2023-03-08T04:46:54;10.63;;;5.55;;
28587;SDS011;15787;49.662;10.162;2023-03-08T04:49:35;13.82;;;6.22;;
28587;SDS011;15787;49.662;10.162;2023-03-08T04:52:08;13.15;;;5.88;;
28587;SDS011;15787;49.662;10.162;2023-03-08T04:54:42;12.50;;;6.90;;
28587;SDS011;15787;49.662;10.162;2023-03-08T04:57:23;11.93;;;6.18;;
28587;SDS011;15787;49.662;10.162;2023-03-08T05:00:00;12.95;;;5.43;;
28587;SDS011;15787;49.662;10.162;2023-03-08T05:02:40;10.32;;;5.43;;
28587;SDS011;15787;49.662;10.162;2023-03-08T05:05:18;10.20;;;5.45;;
28587;SDS011;15787;49.662;10.162;2023-03-08T05:07:51;11.55;;;5.82;;
28587;SDS011;15787;49.662;10.162;2023-03-08T05:10:24;11.38;;;5.68;;
28587;SDS011;15787;49.662;10.162;2023-03-08T05:12:58;9.77;;;5.15;;
28587;SDS011;15787;49.662;10.162;2023-03-08T05:15:34;11.25;;;6.10;;
28587;SDS011;15787;49.662;10.162;2023-03-08T05:18:07;13.25;;;5.97;;
28587;SDS011;15787;49.662;10.162;2023-03-08T05:20:41;11.30;;;6.13;;
28587;SDS011;15787;49.662;10.162;2023-03-08T05:23:14;14.18;;;6.05;;
28587;SDS011;15787;49.662;10.162;2023-03-08T05:25:50;14.90;;;5.68;;
28587;SDS011;15787;49.662;10.162;2023-03-08T05:28:25;14.93;;;6.35;;
28587;SDS011;15787;49.662;10.162;2023-03-08T05:31:02;14.40;;;6.03;;
28587;SDS011;15787;49.662;10.162;2023-03-08T05:33:39;11.50;;;5.55;;
28587;SDS011;15787;49.662;10.162;2023-03-08T05:36:13;11.85;;;6.40;;
28587;SDS011;15787;49.662;10.162;2023-03-08T05:38:51;11.52;;;5.68;;
28587;SDS011;15787;49.662;10.162;2023-03-08T05:41:26;11.13;;;5.45;;
28587;SDS011;15787;49.662;10.162;2023-03-08T05:44:00;14.27;;;6.70;;
28587;SDS011;15787;49.662;10.162;2023-03-08T05:46:37;16.73;;;6.32;;
28587;SDS011;15787;49.662;10.162;2023-03-08T05:49:12;12.48;;;6.45;;
28587;SDS011;15787;49.662;10.162;2023-03-08T05:51:45;22.13;;;7.40;;
28587;SDS011;15787;49.662;10.162;2023-03-08T05:54:19;15.82;;;6.30;;
28587;SDS011;15787;49.662;10.162;2023-03-08T05:56:55;13.30;;;6.35;;
28587;SDS011;15787;49.662;10.162;2023-03-08T05:59:29;15.27;;;6.90;;
28587;SDS011;15787;49.662;10.162;2023-03-08T06:02:07;16.15;;;6.97;;
28587;SDS011;15787;49.662;10.162;2023-03-08T06:04:47;13.82;;;6.57;;
28587;SDS011;15787;49.662;10.162;2023-03-08T06:07:23;14.93;;;7.57;;
28587;SDS011;15787;49.662;10.162;2023-03-08T06:10:02;15.77;;;7.03;;
28587;SDS011;15787;49.662;10.162;2023-03-08T06:12:35;16.85;;;7.78;;
28587;SDS011;15787;49.662;10.162;2023-03-08T06:15:10;13.60;;;7.05;;
28587;SDS011;15787;49.662;10.162;2023-03-08T06:17:45;14.77;;;6.88;;
28587;SDS011;15787;49.662;10.162;2023-03-08T06:20:21;15.80;;;7.40;;
28587;SDS011;15787;49.662;10.162;2023-03-08T06:22:55;15.25;;;7.20;;
28587;SDS011;15787;49.662;10.162;2023-03-08T06:25:28;16.92;;;8.00;;
28587;SDS011;15787;49.662;10.162;2023-03-08T06:28:02;15.38;;;7.30;;
28587;SDS011;15787;49.662;10.162;2023-03-08T06:30:41;13.38;;;6.53;;
28587;SDS011;15787;49.662;10.162;2023-03-08T06:33:15;12.70;;;7.20;;
28587;SDS011;15787;49.662;10.162;2023-03-08T06:35:54;13.27;;;6.35;;
28587;SDS011;15787;49.662;10.162;2023-03-08T06:38:31;13.30;;;6.82;;
28587;SDS011;15787;49.662;10.162;2023-03-08T06:41:05;13.80;;;6.60;;
28587;SDS011;15787;49.662;10.162;2023-03-08T06:43:40;14.43;;;6.82;;
28587;SDS011;15787;49.662;10.162;2023-03-08T06:46:15;14.73;;;6.68;;
28587;SDS011;15787;49.662;10.162;2023-03-08T06:48:53;13.73;;;7.30;;
28587;SDS011;15787;49.662;10.162;2023-03-08T06:51:27;14.43;;;6.70;;
28587;SDS011;15787;49.662;10.162;2023-03-08T06:53:59;16.00;;;7.15;;
28587;SDS011;15787;49.662;10.162;2023-03-08T06:56:33;13.80;;;6.90;;
28587;SDS011;15787;49.662;10.162;2023-03-08T06:59:06;16.20;;;7.00;;
28587;SDS011;15787;49.662;10.162;2023-03-08T07:01:39;14.30;;;6.43;;
28587;SDS011;15787;49.662;10.162;2023-03-08T07:04:14;11.90;;;6.30;;
28587;SDS011;15787;49.662;10.162;2023-03-08T07:06:48;14.65;;;6.32;;
28587;SDS011;15787;49.662;10.162;2023-03-08T07:09:21;13.40;;;6.10;;
28587;SDS011;15787;49.662;10.162;2023-03-08T07:11:54;13.43;;;6.05;;
28587;SDS011;15787;49.662;10.162;2023-03-08T07:14:27;12.70;;;5.82;;
28587;SDS011;15787;49.662;10.162;2023-03-08T07:17:00;11.93;;;6.32;;
28587;SDS011;15787;49.662;10.162;2023-03-08T07:19:34;12.73;;;5.63;;
28587;SDS011;15787;49.662;10.162;2023-03-08T07:22:07;11.73;;;5.40;;
28587;SDS011;15787;49.662;10.162;2023-03-08T07:24:40;11.10;;;5.47;;
28587;SDS011;15787;49.662;10.162;2023-03-08T07:27:13;14.98;;;5.68;;
28587;SDS011;15787;49.662;10.162;2023-03-08T07:29:46;12.88;;;6.07;;
28587;SDS011;15787;49.662;10.162;2023-03-08T07:32:19;13.27;;;6.13;;
28587;SDS011;15787;49.662;10.162;2023-03-08T07:34:55;11.23;;;5.75;;
28587;SDS011;15787;49.662;10.162;2023-03-08T07:37:29;11.15;;;5.35;;
28587;SDS011;15787;49.662;10.162;2023-03-08T07:40:02;12.27;;;5.65;;
28587;SDS011;15787;49.662;10.162;2023-03-08T07:42:36;11.43;;;6.13;;
28587;SDS011;15787;49.662;10.162;2023-03-08T07:45:29;14.05;;;5.93;;
28587;SDS011;15787;49.662;10.162;2023-03-08T07:48:02;11.65;;;5.47;;
28587;SDS011;15787;49.662;10.162;2023-03-08T07:50:37;12.45;;;6.15;;
28587;SDS011;15787;49.662;10.162;2023-03-08T07:53:10;12.98;;;6.38;;
28587;SDS011;15787;49.662;10.162;2023-03-08T07:55:43;13.10;;;5.97;;
28587;SDS011;15787;49.662;10.162;2023-03-08T07:58:16;12.75;;;5.93;;
28587;SDS011;15787;49.662;10.162;2023-03-08T08:00:49;11.10;;;5.85;;
28587;SDS011;15787;49.662;10.162;2023-03-08T08:03:22;11.90;;;5.63;;
28587;SDS011;15787;49.662;10.162;2023-03-08T08:06:00;14.10;;;6.15;;
28587;SDS011;15787;49.662;10.162;2023-03-08T08:08:33;11.38;;;5.68;;
28587;SDS011;15787;49.662;10.162;2023-03-08T08:11:10;11.88;;;5.88;;
28587;SDS011;15787;49.662;10.162;2023-03-08T08:13:43;11.68;;;5.20;;
28587;SDS011;15787;49.662;10.162;2023-03-08T08:16:17;12.80;;;5.78;;
28587;SDS011;15787;49.662;10.162;2023-03-08T08:18:50;11.90;;;5.65;;
28587;SDS011;15787;49.662;10.162;2023-03-08T08:21:26;11.38;;;5.65;;
28587;SDS011;15787;49.662;10.162;2023-03-08T08:23:59;11.95;;;5.68;;
28587;SDS011;15787;49.662;10.162;2023-03-08T08:26:32;11.68;;;5.75;;
28587;SDS011;15787;49.662;10.162;2023-03-08T08:29:05;9.48;;;5.43;;
28587;SDS011;15787;49.662;10.162;2023-03-08T08:31:38;11.27;;;5.53;;
28587;SDS011;15787;49.662;10.162;2023-03-08T08:34:11;13.77;;;6.13;;
28587;SDS011;15787;49.662;10.162;2023-03-08T08:36:45;10.98;;;5.65;;
28587;SDS011;15787;49.662;10.162;2023-03-08T08:39:18;13.02;;;5.95;;
28587;SDS011;15787;49.662;10.162;2023-03-08T08:41:51;11.32;;;6.20;;
28587;SDS011;15787;49.662;10.162;2023-03-08T08:44:24;14.18;;;6.88;;
28587;SDS011;15787;49.662;10.162;2023-03-08T08:46:57;16.77;;;7.95;;
28587;SDS011;15787;49.662;10.162;2023-03-08T08:49:30;13.18;;;6.97;;
28587;SDS011;15787;49.662;10.162;2023-03-08T08:52:04;42.67;;;17.27;;
28587;SDS011;15787;49.662;10.162;2023-03-08T08:54:37;18.55;;;8.75;;
28587;SDS011;15787;49.662;10.162;2023-03-08T08:57:11;15.25;;;6.60;;
28587;SDS011;15787;49.662;10.162;2023-03-08T08:59:44;14.75;;;7.40;;
28587;SDS011;15787;49.662;10.162;2023-03-08T09:02:18;18.08;;;7.07;;
28587;SDS011;15787;49.662;10.162;2023-03-08T09:04:51;15.38;;;6.53;;
28587;SDS011;15787;49.662;10.162;2023-03-08T09:07:26;14.88;;;7.60;;
28587;SDS011;15787;49.662;10.162;2023-03-08T09:09:59;18.08;;;7.28;;
28587;SDS011;15787;49.662;10.162;2023-03-08T09:12:32;16.20;;;8.30;;
28587;SDS011;15787;49.662;10.162;2023-03-08T09:15:05;20.27;;;7.88;;
28587;SDS011;15787;49.662;10.162;2023-03-08T09:17:40;18.52;;;7.88;;
28587;SDS011;15787;49.662;10.162;2023-03-08T09:20:13;20.23;;;9.05;;
28587;SDS011;15787;49.662;10.162;2023-03-08T09:22:48;26.23;;;10.05;;
28587;SDS011;15787;49.662;10.162;2023-03-08T09:25:22;30.52;;;11.52;;
28587;SDS011;15787;49.662;10.162;2023-03-08T09:27:55;21.48;;;10.60;;
28587;SDS011;15787;49.662;10.162;2023-03-08T09:30:28;19.25;;;9.05;;
28587;SDS011;15787;49.662;10.162;2023-03-08T09:33:03;26.50;;;10.32;;
28587;SDS011;15787;49.662;10.162;2023-03-08T09:35:36;24.35;;;10.52;;
28587;SDS011;15787;49.662;10.162;2023-03-08T09:38:10;25.02;;;11.27;;
28587;SDS011;15787;49.662;10.162;2023-03-08T09:40:44;26.10;;;10.60;;
28587;SDS011;15787;49.662;10.162;2023-03-08T09:43:30;23.25;;;10.10;;
28587;SDS011;15787;49.662;10.162;2023-03-08T09:46:12;24.05;;;10.60;;
28587;SDS011;15787;49.662;10.162;2023-03-08T09:48:48;25.92;;;11.73;;
28587;SDS011;15787;49.662;10.162;2023-03-08T09:51:22;23.77;;;10.20;;
28587;SDS011;15787;49.662;10.162;2023-03-08T09:54:02;26.35;;;11.20;;
28587;SDS011;15787;49.662;10.162;2023-03-08T09:56:40;24.92;;;10.40;;
28587;SDS011;15787;49.662;10.162;2023-03-08T09:59:18;28.23;;;10.50;;
28587;SDS011;15787;49.662;10.162;2023-03-08T10:01:57;20.20;;;9.63;;
28587;SDS011;15787;49.662;10.162;2023-03-08T10:04:42;18.38;;;9.05;;
28587;SDS011;15787;49.662;10.162;2023-03-08T10:07:44;23.80;;;9.60;;
28587;SDS011;15787;49.662;10.162;2023-03-08T10:10:32;21.63;;;9.95;;
28587;SDS011;15787;49.662;10.162;2023-03-08T10:13:18;19.53;;;8.80;;
28587;SDS011;15787;49.662;10.162;2023-03-08T10:16:03;19.95;;;9.32;;
28587;SDS011;15787;49.662;10.162;2023-03-08T10:18:43;20.83;;;9.95;;
28587;SDS011;15787;49.662;10.162;2023-03-08T10:21:20;23.70;;;10.18;;
28587;SDS011;15787;49.662;10.162;2023-03-08T10:23:57;19.80;;;9.75;;
28587;SDS011;15787;49.662;10.162;2023-03-08T10:26:35;16.98;;;7.90;;
28587;SDS011;15787;49.662;10.162;2023-03-08T10:29:08;22.08;;;9.45;;
28587;SDS011;15787;49.662;10.162;2023-03-08T10:31:42;22.58;;;9.80;;
28587;SDS011;15787;49.662;10.162;2023-03-08T10:34:18;20.63;;;9.52;;
28587;SDS011;15787;49.662;10.162;2023-03-08T10:36:56;23.10;;;9.65;;
28587;SDS011;15787;49.662;10.162;2023-03-08T10:39:31;21.40;;;9.77;;
28587;SDS011;15787;49.662;10.162;2023-03-08T10:42:13;28.38;;;11.13;;
28587;SDS011;15787;49.662;10.162;2023-03-08T10:44:51;26.08;;;10.82;;
28587;SDS011;15787;49.662;10.162;2023-03-08T10:47:27;20.75;;;10.35;;
28587;SDS011;15787;49.662;10.162;2023-03-08T10:50:03;24.05;;;10.13;;
28587;SDS011;15787;49.662;10.162;2023-03-08T10:52:45;21.73;;;11.20;;
28587;SDS011;15787;49.662;10.162;2023-03-08T10:55:20;24.38;;;10.60;;
28587;SDS011;15787;49.662;10.162;2023-03-08T10:57:56;22.90;;;9.48;;
28587;SDS011;15787;49.662;10.162;2023-03-08T11:00:32;28.00;;;12.35;;
28587;SDS011;15787;49.662;10.162;2023-03-08T11:03:11;23.45;;;11.93;;
28587;SDS011;15787;49.662;10.162;2023-03-08T11:05:53;27.17;;;12.70;;
28587;SDS011;15787;49.662;10.162;2023-03-08T11:08:29;25.02;;;10.95;;
28587;SDS011;15787;49.662;10.162;2023-03-08T11:11:07;22.58;;;11.10;;
28587;SDS011;15787;49.662;10.162;2023-03-08T11:13:43;25.75;;;13.40;;
28587;SDS011;15787;49.662;10.162;2023-03-08T11:16:27;24.75;;;10.93;;
28587;SDS011;15787;49.662;10.162;2023-03-08T11:19:15;25.75;;;11.90;;
28587;SDS011;15787;49.662;10.162;2023-03-08T11:22:01;24.40;;;11.85;;
28587;SDS011;15787;49.662;10.162;2023-03-08T11:27:51;26.23;;;13.00;;
28587;SDS011;15787;49.662;10.162;2023-03-08T11:30:34;28.90;;;13.80;;
28587;SDS011;15787;49.662;10.162;2023-03-08T11:33:24;27.83;;;13.73;;
28587;SDS011;15787;49.662;10.162;2023-03-08T11:36:09;26.98;;;12.40;;
28587;SDS011;15787;49.662;10.162;2023-03-08T11:38:47;27.23;;;13.02;;
28587;SDS011;15787;49.662;10.162;2023-03-08T11:41:30;28.90;;;13.85;;
28587;SDS011;15787;49.662;10.162;2023-03-08T11:44:19;27.92;;;12.55;;
28587;SDS011;15787;49.662;10.162;2023-03-08T11:47:21;29.23;;;12.55;;
28587;SDS011;15787;49.662;10.162;2023-03-08T11:50:15;27.50;;;12.02;;
28587;SDS011;15787;49.662;10.162;2023-03-08T11:52:58;23.10;;;11.98;;
28587;SDS011;15787;49.662;10.162;2023-03-08T12:01:34;26.15;;;12.52;;
28587;SDS011;15787;49.662;10.162;2023-03-08T12:04:14;25.02;;;12.75;;
28587;SDS011;15787;49.662;10.162;2023-03-08T12:06:50;29.20;;;13.13;;
28587;SDS011;15787;49.662;10.162;2023-03-08T12:09:27;29.05;;;13.48;;
28587;SDS011;15787;49.662;10.162;2023-03-08T12:12:05;31.30;;;13.43;;
28587;SDS011;15787;49.662;10.162;2023-03-08T12:14:45;30.65;;;14.07;;
28587;SDS011;15787;49.662;10.162;2023-03-08T12:17:27;27.80;;;14.95;;
28587;SDS011;15787;49.662;10.162;2023-03-08T12:20:07;28.27;;;13.07;;
28587;SDS011;15787;49.662;10.162;2023-03-08T12:22:46;27.52;;;13.38;;
28587;SDS011;15787;49.662;10.162;2023-03-08T12:25:23;24.92;;;12.00;;
28587;SDS011;15787;49.662;10.162;2023-03-08T12:27:59;28.45;;;12.80;;
28587;SDS011;15787;49.662;10.162;2023-03-08T12:30:38;26.73;;;12.90;;
28587;SDS011;15787;49.662;10.162;2023-03-08T12:33:19;26.65;;;12.48;;
28587;SDS011;15787;49.662;10.162;2023-03-08T12:35:56;26.40;;;12.40;;
28587;SDS011;15787;49.662;10.162;2023-03-08T12:38:31;25.88;;;11.88;;
28587;SDS011;15787;49.662;10.162;2023-03-08T12:41:19;24.92;;;10.95;;
28587;SDS011;15787;49.662;10.162;2023-03-08T12:43:58;22.30;;;10.32;;
28587;SDS011;15787;49.662;10.162;2023-03-08T12:46:46;29.83;;;11.82;;
28587;SDS011;15787;49.662;10.162;2023-03-08T12:49:34;19.58;;;9.98;;
28587;SDS011;15787;49.662;10.162;2023-03-08T12:52:22;21.45;;;10.43;;
28587;SDS011;15787;49.662;10.162;2023-03-08T12:54:58;22.83;;;11.20;;
28587;SDS011;15787;49.662;10.162;2023-03-08T12:57:33;23.50;;;10.38;;
28587;SDS011;15787;49.662;10.162;2023-03-08T13:00:23;22.75;;;10.30;;
28587;SDS011;15787;49.662;10.162;2023-03-08T13:03:00;19.05;;;9.43;;
28587;SDS011;15787;49.662;10.162;2023-03-08T13:05:36;18.98;;;8.77;;
28587;SDS011;15787;49.662;10.162;2023-03-08T13:08:22;25.38;;;10.50;;
28587;SDS011;15787;49.662;10.162;2023-03-08T13:11:05;21.30;;;9.25;;
28587;SDS011;15787;49.662;10.162;2023-03-08T13:13:42;17.45;;;7.88;;
28587;SDS011;15787;49.662;10.162;2023-03-08T13:16:32;22.10;;;8.77;;
28587;SDS011;15787;49.662;10.162;2023-03-08T13:19:12;18.90;;;8.75;;
28587;SDS011;15787;49.662;10.162;2023-03-08T13:21:52;21.65;;;9.20;;
28587;SDS011;15787;49.662;10.162;2023-03-08T13:24:37;18.60;;;8.65;;
28587;SDS011;15787;49.662;10.162;2023-03-08T13:27:19;19.52;;;8.45;;
28587;SDS011;15787;49.662;10.162;2023-03-08T13:30:07;18.13;;;7.38;;
28587;SDS011;15787;49.662;10.162;2023-03-08T13:32:50;20.40;;;8.20;;
28587;SDS011;15787;49.662;10.162;2023-03-08T13:35:24;18.92;;;8.32;;
28587;SDS011;15787;49.662;10.162;2023-03-08T13:37:57;17.55;;;8.05;;
28587;SDS011;15787;49.662;10.162;2023-03-08T13:40:33;16.10;;;7.68;;
28587;SDS011;15787;49.662;10.162;2023-03-08T13:43:12;17.52;;;8.30;;
28587;SDS011;15787;49.662;10.162;2023-03-08T13:45:45;16.38;;;7.60;;
28587;SDS011;15787;49.662;10.162;2023-03-08T13:48:19;16.77;;;7.93;;
28587;SDS011;15787;49.662;10.162;2023-03-08T13:50:53;15.05;;;7.18;;
28587;SDS011;15787;49.662;10.162;2023-03-08T13:53:28;12.20;;;6.68;;
28587;SDS011;15787;49.662;10.162;2023-03-08T13:56:05;14.27;;;6.25;;
28587;SDS011;15787;49.662;10.162;2023-03-08T13:58:40;11.27;;;5.88;;
28587;SDS011;15787;49.662;10.162;2023-03-08T14:01:17;14.45;;;5.93;;
28587;SDS011;15787;49.662;10.162;2023-03-08T14:03:53;11.80;;;6.32;;
28587;SDS011;15787;49.662;10.162;2023-03-08T14:06:29;12.35;;;6.03;;
28587;SDS011;15787;49.662;10.162;2023-03-08T14:09:04;10.65;;;5.18;;
28587;SDS011;15787;49.662;10.162;2023-03-08T14:11:39;10.95;;;5.95;;
28587;SDS011;15787;49.662;10.162;2023-03-08T14:14:14;11.15;;;4.68;;
28587;SDS011;15787;49.662;10.162;2023-03-08T14:16:52;9.10;;;4.88;;
28587;SDS011;15787;49.662;10.162;2023-03-08T14:19:26;9.30;;;4.70;;
28587;SDS011;15787;49.662;10.162;2023-03-08T14:22:01;10.05;;;4.57;;
28587;SDS011;15787;49.662;10.162;2023-03-08T14:24:42;8.60;;;4.95;;
28587;SDS011;15787;49.662;10.162;2023-03-08T14:27:29;11.30;;;4.80;;
28587;SDS011;15787;49.662;10.162;2023-03-08T14:30:09;9.35;;;4.60;;
28587;SDS011;15787;49.662;10.162;2023-03-08T14:33:00;11.07;;;4.68;;
28587;SDS011;15787;49.662;10.162;2023-03-08T14:35:37;9.60;;;4.20;;
28587;SDS011;15787;49.662;10.162;2023-03-08T14:38:12;8.23;;;4.30;;
28587;SDS011;15787;49.662;10.162;2023-03-08T14:40:46;11.10;;;5.03;;
28587;SDS011;15787;49.662;10.162;2023-03-08T14:43:23;8.63;;;4.65;;
28587;SDS011;15787;49.662;10.162;2023-03-08T14:45:58;8.82;;;4.47;;
28587;SDS011;15787;49.662;10.162;2023-03-08T14:48:34;7.50;;;4.25;;
28587;SDS011;15787;49.662;10.162;2023-03-08T14:51:23;7.10;;;3.60;;
28587;SDS011;15787;49.662;10.162;2023-03-08T14:53:59;8.05;;;5.00;;
28587;SDS011;15787;49.662;10.162;2023-03-08T14:56:33;9.73;;;5.18;;
28587;SDS011;15787;49.662;10.162;2023-03-08T14:59:09;13.38;;;5.28;;
28587;SDS011;15787;49.662;10.162;2023-03-08T15:01:57;9.43;;;4.50;;
28587;SDS011;15787;49.662;10.162;2023-03-08T15:04:30;9.80;;;4.68;;
28587;SDS011;15787;49.662;10.162;2023-03-08T15:07:03;6.72;;;3.78;;
28587;SDS011;15787;49.662;10.162;2023-03-08T15:09:37;8.80;;;4.50;;
28587;SDS011;15787;49.662;10.162;2023-03-08T15:12:12;6.53;;;3.78;;
28587;SDS011;15787;49.662;10.162;2023-03-08T15:14:46;5.10;;;3.00;;
28587;SDS011;15787;49.662;10.162;2023-03-08T15:17:19;0.00;;;0.00;;
28587;SDS011;15787;49.662;10.162;2023-03-08T15:19:52;0.00;;;0.00;;
28587;SDS011;15787;49.662;10.162;2023-03-08T15:22:25;0.00;;;0.00;;
28587;SDS011;15787;49.662;10.162;2023-03-08T15:24:58;0.00;;;0.00;;